createdAt,value
2023-02-19T00:00:30.350Z,101591.22
2023-02-19T00:10:51.771Z,101608.47
2023-02-19T00:21:13.940Z,101618.06
2023-02-19T00:31:36.058Z,101609.56
2023-02-19T00:41:57.519Z,101619.06
2023-02-19T00:52:18.895Z,101619.97
2023-02-19T01:02:40.238Z,101625.13
2023-02-19T01:13:01.586Z,101641.41
2023-02-19T01:23:22.963Z,101650.88
2023-02-19T01:33:46.000Z,101645.75
2023-02-19T01:44:11.373Z,101636.34
2023-02-19T01:54:35.302Z,101638.06
2023-02-19T02:04:58.279Z,101640.66
2023-02-19T02:15:19.678Z,101638.09
2023-02-19T02:25:41.402Z,101644.09
2023-02-19T02:36:02.758Z,101638.13
2023-02-19T02:46:28.289Z,101663.00
2023-02-19T02:56:50.165Z,101679.28
2023-02-19T03:07:12.045Z,101679.31
2023-02-19T03:18:03.291Z,101699.84
2023-02-19T03:28:46.492Z,101728.13
2023-02-19T03:39:09.107Z,101723.88
2023-02-19T03:49:43.892Z,101763.25
2023-02-19T04:00:15.566Z,101786.38
2023-02-19T04:10:38.576Z,101807.78
2023-02-19T04:21:00.988Z,101830.03
2023-02-19T04:31:23.172Z,101844.59
2023-02-19T04:41:44.624Z,101871.16
2023-02-19T04:52:05.965Z,101884.03
2023-02-19T05:02:27.491Z,101905.44
2023-02-19T05:12:48.857Z,101932.84
2023-02-19T05:23:10.207Z,101932.84
2023-02-19T05:33:31.930Z,101963.69
2023-02-19T05:43:53.539Z,101977.34
2023-02-19T05:54:14.958Z,101977.28
2023-02-19T06:04:36.309Z,102012.41
2023-02-19T06:14:57.716Z,102027.00
2023-02-19T06:25:19.314Z,102063.84
2023-02-19T06:35:40.698Z,102086.16
2023-02-19T06:46:03.218Z,102109.28
2023-02-19T06:56:26.063Z,102125.53
2023-02-19T07:06:47.414Z,102157.22
2023-02-19T07:17:08.766Z,102163.28
2023-02-19T07:27:30.141Z,102188.16
2023-02-19T07:37:51.493Z,102196.69
2023-02-19T07:48:12.953Z,102212.13
2023-02-19T07:58:34.891Z,102216.44
2023-02-19T08:08:57.856Z,102216.44
2023-02-19T08:19:19.454Z,102241.41
2023-02-19T08:29:40.882Z,102233.72
2023-02-19T08:40:02.234Z,102248.31
2023-02-19T08:50:23.719Z,102263.75
2023-02-19T09:00:47.101Z,102292.13
2023-02-19T09:11:08.533Z,102310.16
2023-02-19T09:21:29.984Z,102345.34
2023-02-19T09:31:51.407Z,102375.50
2023-02-19T09:42:15.496Z,102385.03
2023-02-19T09:52:38.528Z,102410.00
2023-02-19T10:03:05.471Z,102425.50
2023-02-19T10:13:50.130Z,102437.59
2023-02-19T10:24:20.510Z,102419.81
2023-02-19T10:34:41.914Z,102423.28
2023-02-19T10:45:03.975Z,102470.59
2023-02-19T10:55:28.418Z,102486.94
2023-02-19T11:06:03.279Z,102499.94
2023-02-19T11:16:36.935Z,102494.94
2023-02-19T11:26:58.477Z,102494.06
2023-02-19T11:37:23.910Z,102485.56
2023-02-19T11:48:09.213Z,102474.41
2023-02-19T11:58:33.617Z,102480.63
2023-02-19T12:09:02.943Z,102500.38
2023-02-19T12:19:33.328Z,102487.44
2023-02-19T12:30:02.967Z,102487.41
2023-02-19T12:40:39.304Z,102463.44
2023-02-19T12:51:12.918Z,102482.50
2023-02-19T13:01:39.007Z,102488.63
2023-02-19T13:12:04.354Z,102487.78
2023-02-19T13:23:13.705Z,102474.00
2023-02-19T13:33:43.983Z,102497.25
2023-02-19T13:44:08.266Z,102510.16
2023-02-19T13:54:36.006Z,102529.97
2023-02-19T14:04:57.400Z,102520.53
2023-02-19T14:15:24.814Z,102513.66
2023-02-19T14:25:49.131Z,102486.13
2023-02-19T14:36:28.873Z,102457.72
2023-02-19T14:46:50.282Z,102437.06
2023-02-19T14:57:17.741Z,102437.09
2023-02-19T15:07:41.289Z,102445.69
2023-02-19T15:18:03.873Z,102465.47
2023-02-19T15:28:25.243Z,102473.19
2023-02-19T15:38:52.034Z,102474.84
2023-02-19T15:49:18.235Z,102487.72
2023-02-19T15:59:41.966Z,102490.28
2023-02-19T16:10:16.098Z,102469.63
2023-02-19T16:20:37.568Z,102502.28
2023-02-19T16:31:06.862Z,102506.50
2023-02-19T16:41:28.280Z,102502.06
2023-02-19T16:51:50.285Z,102520.84
2023-02-19T17:02:16.218Z,102538.84
2023-02-19T17:12:37.591Z,102544.81
2023-02-19T17:22:59.149Z,102538.69
2023-02-19T17:33:20.522Z,102553.28
2023-02-19T17:43:41.916Z,102549.78
2023-02-19T17:54:03.342Z,102556.56
2023-02-19T18:04:24.695Z,102554.81
2023-02-19T18:14:46.679Z,102550.50
2023-02-19T18:25:08.200Z,102552.13
2023-02-19T18:35:29.571Z,102539.31
2023-02-19T18:45:51.114Z,102530.66
2023-02-19T18:56:12.526Z,102528.91
2023-02-19T19:06:35.789Z,102550.31
2023-02-19T19:16:57.266Z,102537.38
2023-02-19T19:27:19.804Z,102518.44
2023-02-19T19:37:41.329Z,102527.03
2023-02-19T19:48:02.678Z,102532.22
2023-02-19T19:58:24.812Z,102507.31
2023-02-19T20:08:46.186Z,102496.16
2023-02-19T20:19:07.698Z,102503.00
2023-02-19T20:29:31.125Z,102502.06
2023-02-19T20:39:52.512Z,102494.31
2023-02-19T20:50:15.982Z,102492.44
2023-02-19T21:00:37.372Z,102486.41
2023-02-19T21:10:58.737Z,102496.69
2023-02-19T21:21:21.166Z,102462.34
2023-02-19T21:31:47.269Z,102439.19
2023-02-19T21:42:08.814Z,102419.47
2023-02-19T21:52:31.101Z,102415.22
2023-02-19T22:02:52.468Z,102477.91
2023-02-19T22:13:13.828Z,102471.88
2023-02-19T22:23:35.183Z,102476.19
2023-02-19T22:33:57.128Z,102478.75
2023-02-19T22:44:18.690Z,102477.91
2023-02-19T22:54:40.105Z,102471.03
2023-02-19T23:05:01.464Z,102440.16
2023-02-19T23:15:22.821Z,102441.00
2023-02-19T23:25:44.156Z,102422.16
2023-02-19T23:36:05.739Z,102411.78
2023-02-19T23:46:27.136Z,102387.81
2023-02-19T23:56:48.503Z,102366.34
